createdAt,value
2017-11-28T10:27:56.301Z,0.60
2017-11-28T10:32:59.614Z,0.37
2017-11-28T10:38:02.917Z,0.90
2017-11-28T11:28:08.972Z,0.70
2017-11-28T11:33:12.490Z,1.00
2017-11-28T11:38:16.532Z,1.10
2017-11-28T11:43:19.871Z,0.80
2017-11-28T11:48:23.263Z,0.70
2017-11-28T11:53:50.012Z,0.60
2017-11-28T11:58:53.375Z,0.87
2017-11-28T12:04:03.692Z,0.73
2017-11-28T12:09:07.051Z,0.50
2017-11-28T16:36:43.897Z,3.93
2017-11-28T16:41:47.988Z,4.40
2017-11-28T16:46:51.262Z,4.13
2017-11-28T16:51:54.555Z,3.70
2017-11-28T16:56:57.827Z,2.53
2017-11-28T17:02:01.160Z,3.33
2017-11-28T17:07:05.233Z,2.83
2017-11-28T17:12:08.518Z,3.33
2017-11-28T17:17:11.811Z,3.47
2017-11-28T17:22:15.954Z,2.20
2017-11-28T17:27:20.316Z,2.50
2017-11-28T17:32:23.665Z,2.80
2017-11-28T17:37:26.997Z,3.07
2017-11-28T17:42:30.335Z,3.47
2017-11-28T17:47:34.414Z,3.80
2017-11-28T17:52:43.650Z,3.30
2017-11-28T17:57:46.989Z,3.50
2017-11-28T18:02:51.054Z,3.30
2017-11-28T18:07:54.366Z,4.00
2017-11-28T18:12:57.681Z,3.33
2017-11-28T18:18:03.007Z,2.70
2017-11-28T18:23:06.315Z,3.00
2017-11-28T18:28:09.633Z,5.07
2017-11-28T18:33:15.056Z,4.70
2017-11-28T18:38:19.122Z,3.43
2017-11-28T18:43:22.424Z,3.70
2017-11-28T18:48:26.536Z,5.37
2017-11-28T18:53:29.879Z,3.57
